Portada
METAR-TAF:

METAR-TAF

Aeropuertos :

Aeropuerto Internacional Hercílio Luz

Florianópolis, Santa Catarina, Brasil

latitud: 27-40S, longitud: 048-33W, altitud: 5 m

Observación

El informe se hizo hace 48 minutos, a las 02:00 UTC
Viento 3 kt del sur-suroeste
Temperatura 17°C
Humedad 82%
Presión 1024 hPa
Visibilidad 10 km o más
sin nubes por debajo de 1500 m y sin presencia de cumulonimbus.

METAR: SBFL 040200Z 20003KT CAVOK 17/14 Q1024

Hora: 23:48 (02:48 UTC)

Pronóstico

El informe se hizo hace 5 horas y 48 minutos, a las 21:00 UTC
Pronóstico válido del 04 a las 00 UTC al 04 a las 24 UTC
Viento 5 kt del este-sureste
Visibilidad 10 km o más
Cielo nuboso a una altura de 3000 ft

TAF: SBFL 032100Z 0400/0424 12005KT 9999 BKN030 TN14/0408Z TX20/0416Z RMK PDW

Observaciones y pronósticos meteorológicos de más de 4000 aeropuertos (mensajes METAR y TAF).

Los puntos amarillos y rojos representan las estaciones disponibles.

Ponga el ratón en el punto deseado para ver el nombre de la estación.

Haga clic para ver las observaciones y los pronósticos meteorológicos.

Para cambiar el mapa : haga clic en los botones verdes con una cruz de color negro para hacer un zoom, en el botón verde con un guión para alejar o en las flechas verdes para mapas adyacentes.


METAR-TAF: